Current Conditions
Mostly Clear
Conditions



Pressure
1022.92 (mb) - 30.21 (inHG)
Visibility

10.0 (km) - 6.2 (miles)
Temperature
24  °C
Temperature
10  °C
Dewpoint
41  %
 Humidity
Wind Speed
8  km/h
4  kts
5  mph
2.2  m/s
Wind Direction
N
45°
E
90°
135°
S
180°
225°
W
270°
315°
 110°

East South
East
Airport Data
LELN
Leon Airport
Metar :LELN 141200Z 11004KT 020V160 CAVOK 24/10 Q1023
Mon 14th June 14:00 pm
Raw Metar Info
Raw METAR is the most common format in the world for the transmission of observational weather data. It is highly standardized through the International Civil Aviation Organization (ICAO), which allows it to be understood throughout most of the world.
API Info
Data Provided by
https://www.checkwx.com/weather/LELN

Aviation Weather providing METAR, TAF, AIRMET, SIGMET and OUTLOOK Weather Reports
© Info
CSS/SVG/PHP scripts were developed by weather34.com for use in the weather34 template © 2015-2021

Guide Info provided by Metar-Wikipedia